sensor_id;sensor_type;location;lat;lon;timestamp;P1;durP1;ratioP1;P2;durP2;ratioP2
66139;SDS011;52945;51.908;8.364;2024-03-06T00:00:56;31.90;;;12.07;;
66139;SDS011;52945;51.908;8.364;2024-03-06T00:03:57;29.33;;;12.18;;
66139;SDS011;52945;51.908;8.364;2024-03-06T00:06:57;33.75;;;12.05;;
66139;SDS011;52945;51.908;8.364;2024-03-06T00:09:58;30.38;;;10.70;;
66139;SDS011;52945;51.908;8.364;2024-03-06T00:12:59;29.88;;;12.20;;
66139;SDS011;52945;51.908;8.364;2024-03-06T00:15:59;36.33;;;12.45;;
66139;SDS011;52945;51.908;8.364;2024-03-06T00:19:00;36.28;;;11.75;;
66139;SDS011;52945;51.908;8.364;2024-03-06T00:22:03;32.17;;;11.70;;
66139;SDS011;52945;51.908;8.364;2024-03-06T00:25:04;32.40;;;11.90;;
66139;SDS011;52945;51.908;8.364;2024-03-06T00:28:05;30.27;;;11.75;;
66139;SDS011;52945;51.908;8.364;2024-03-06T00:31:06;32.63;;;12.10;;
66139;SDS011;52945;51.908;8.364;2024-03-06T00:34:06;32.72;;;12.23;;
66139;SDS011;52945;51.908;8.364;2024-03-06T00:37:07;30.80;;;11.48;;
66139;SDS011;52945;51.908;8.364;2024-03-06T00:40:08;31.55;;;12.55;;
66139;SDS011;52945;51.908;8.364;2024-03-06T00:43:08;31.60;;;12.10;;
66139;SDS011;52945;51.908;8.364;2024-03-06T00:46:09;33.33;;;13.13;;
66139;SDS011;52945;51.908;8.364;2024-03-06T00:49:10;35.08;;;12.90;;
66139;SDS011;52945;51.908;8.364;2024-03-06T00:52:10;34.50;;;12.38;;
66139;SDS011;52945;51.908;8.364;2024-03-06T00:55:11;35.42;;;13.15;;
66139;SDS011;52945;51.908;8.364;2024-03-06T00:58:11;30.55;;;11.80;;
66139;SDS011;52945;51.908;8.364;2024-03-06T01:01:12;32.20;;;12.75;;
66139;SDS011;52945;51.908;8.364;2024-03-06T01:04:13;37.63;;;13.05;;
66139;SDS011;52945;51.908;8.364;2024-03-06T01:07:14;34.45;;;12.52;;
66139;SDS011;52945;51.908;8.364;2024-03-06T01:10:14;36.72;;;12.27;;
66139;SDS011;52945;51.908;8.364;2024-03-06T01:13:15;39.92;;;13.10;;
66139;SDS011;52945;51.908;8.364;2024-03-06T01:16:15;36.55;;;13.13;;
66139;SDS011;52945;51.908;8.364;2024-03-06T01:19:16;34.72;;;12.18;;
66139;SDS011;52945;51.908;8.364;2024-03-06T01:22:17;38.28;;;13.38;;
66139;SDS011;52945;51.908;8.364;2024-03-06T01:25:18;32.38;;;11.60;;
66139;SDS011;52945;51.908;8.364;2024-03-06T01:28:18;33.95;;;12.48;;
66139;SDS011;52945;51.908;8.364;2024-03-06T01:31:19;37.83;;;12.30;;
66139;SDS011;52945;51.908;8.364;2024-03-06T01:34:20;35.70;;;12.63;;
66139;SDS011;52945;51.908;8.364;2024-03-06T01:37:20;36.42;;;13.35;;
66139;SDS011;52945;51.908;8.364;2024-03-06T01:40:21;34.97;;;12.23;;
66139;SDS011;52945;51.908;8.364;2024-03-06T01:43:25;34.65;;;13.18;;
66139;SDS011;52945;51.908;8.364;2024-03-06T01:46:27;36.75;;;13.20;;
66139;SDS011;52945;51.908;8.364;2024-03-06T01:49:27;34.15;;;12.32;;
66139;SDS011;52945;51.908;8.364;2024-03-06T01:52:28;40.63;;;14.15;;
66139;SDS011;52945;51.908;8.364;2024-03-06T01:55:29;37.63;;;13.23;;
66139;SDS011;52945;51.908;8.364;2024-03-06T01:58:30;39.78;;;13.40;;
66139;SDS011;52945;51.908;8.364;2024-03-06T02:01:31;35.70;;;12.30;;
66139;SDS011;52945;51.908;8.364;2024-03-06T02:04:32;38.78;;;13.75;;
66139;SDS011;52945;51.908;8.364;2024-03-06T02:07:33;40.13;;;13.27;;
66139;SDS011;52945;51.908;8.364;2024-03-06T02:10:36;33.92;;;13.50;;
66139;SDS011;52945;51.908;8.364;2024-03-06T02:13:36;37.03;;;13.60;;
66139;SDS011;52945;51.908;8.364;2024-03-06T02:16:37;40.58;;;14.18;;
66139;SDS011;52945;51.908;8.364;2024-03-06T02:19:41;38.95;;;13.43;;
66139;SDS011;52945;51.908;8.364;2024-03-06T02:22:43;37.75;;;13.05;;
66139;SDS011;52945;51.908;8.364;2024-03-06T02:25:44;36.38;;;13.50;;
66139;SDS011;52945;51.908;8.364;2024-03-06T02:28:53;35.72;;;13.25;;
66139;SDS011;52945;51.908;8.364;2024-03-06T02:31:54;40.40;;;12.65;;
66139;SDS011;52945;51.908;8.364;2024-03-06T02:34:55;40.20;;;12.90;;
66139;SDS011;52945;51.908;8.364;2024-03-06T02:37:56;41.63;;;14.00;;
66139;SDS011;52945;51.908;8.364;2024-03-06T02:40:57;39.88;;;13.55;;
66139;SDS011;52945;51.908;8.364;2024-03-06T02:43:58;36.45;;;12.70;;
66139;SDS011;52945;51.908;8.364;2024-03-06T02:46:59;39.80;;;13.10;;
66139;SDS011;52945;51.908;8.364;2024-03-06T02:49:59;34.17;;;11.82;;
66139;SDS011;52945;51.908;8.364;2024-03-06T02:53:00;39.10;;;12.60;;
66139;SDS011;52945;51.908;8.364;2024-03-06T02:56:00;33.08;;;12.40;;
66139;SDS011;52945;51.908;8.364;2024-03-06T02:59:01;35.47;;;13.23;;
66139;SDS011;52945;51.908;8.364;2024-03-06T03:05:03;32.35;;;11.85;;
66139;SDS011;52945;51.908;8.364;2024-03-06T03:08:05;36.53;;;12.23;;
66139;SDS011;52945;51.908;8.364;2024-03-06T03:14:08;35.55;;;10.93;;
66139;SDS011;52945;51.908;8.364;2024-03-06T03:17:08;33.78;;;13.63;;
66139;SDS011;52945;51.908;8.364;2024-03-06T03:20:09;38.25;;;13.07;;
66139;SDS011;52945;51.908;8.364;2024-03-06T03:26:14;37.80;;;12.43;;
66139;SDS011;52945;51.908;8.364;2024-03-06T03:29:14;33.92;;;12.43;;
66139;SDS011;52945;51.908;8.364;2024-03-06T03:32:15;41.97;;;12.45;;
66139;SDS011;52945;51.908;8.364;2024-03-06T03:35:16;45.08;;;14.85;;
66139;SDS011;52945;51.908;8.364;2024-03-06T03:38:20;37.08;;;12.77;;
66139;SDS011;52945;51.908;8.364;2024-03-06T03:41:21;40.70;;;14.07;;
66139;SDS011;52945;51.908;8.364;2024-03-06T03:44:21;39.70;;;12.90;;
66139;SDS011;52945;51.908;8.364;2024-03-06T03:47:22;41.97;;;12.93;;
66139;SDS011;52945;51.908;8.364;2024-03-06T03:50:23;41.25;;;13.65;;
66139;SDS011;52945;51.908;8.364;2024-03-06T03:53:23;43.83;;;13.30;;
66139;SDS011;52945;51.908;8.364;2024-03-06T03:56:24;40.55;;;13.85;;
66139;SDS011;52945;51.908;8.364;2024-03-06T03:59:24;47.83;;;14.45;;
66139;SDS011;52945;51.908;8.364;2024-03-06T04:02:25;36.90;;;13.35;;
66139;SDS011;52945;51.908;8.364;2024-03-06T04:05:26;42.47;;;14.82;;
66139;SDS011;52945;51.908;8.364;2024-03-06T04:08:29;41.72;;;13.88;;
66139;SDS011;52945;51.908;8.364;2024-03-06T04:11:30;36.38;;;12.75;;
66139;SDS011;52945;51.908;8.364;2024-03-06T04:14:33;37.50;;;13.38;;
66139;SDS011;52945;51.908;8.364;2024-03-06T04:17:34;41.03;;;13.90;;
66139;SDS011;52945;51.908;8.364;2024-03-06T04:20:36;42.67;;;13.98;;
66139;SDS011;52945;51.908;8.364;2024-03-06T04:23:37;43.13;;;14.13;;
66139;SDS011;52945;51.908;8.364;2024-03-06T04:26:37;37.05;;;13.57;;
66139;SDS011;52945;51.908;8.364;2024-03-06T04:29:38;37.35;;;13.63;;
66139;SDS011;52945;51.908;8.364;2024-03-06T04:32:38;39.35;;;13.68;;
66139;SDS011;52945;51.908;8.364;2024-03-06T04:35:39;40.97;;;13.65;;
66139;SDS011;52945;51.908;8.364;2024-03-06T04:38:40;44.67;;;13.75;;
66139;SDS011;52945;51.908;8.364;2024-03-06T04:41:40;47.30;;;13.85;;
66139;SDS011;52945;51.908;8.364;2024-03-06T04:44:41;41.78;;;13.85;;
66139;SDS011;52945;51.908;8.364;2024-03-06T04:47:43;38.83;;;13.68;;
66139;SDS011;52945;51.908;8.364;2024-03-06T04:50:43;36.08;;;13.38;;
66139;SDS011;52945;51.908;8.364;2024-03-06T04:53:45;43.03;;;13.23;;
66139;SDS011;52945;51.908;8.364;2024-03-06T04:56:45;37.28;;;13.90;;
66139;SDS011;52945;51.908;8.364;2024-03-06T04:59:46;32.38;;;12.30;;
66139;SDS011;52945;51.908;8.364;2024-03-06T05:02:47;35.78;;;12.75;;
66139;SDS011;52945;51.908;8.364;2024-03-06T05:05:49;37.35;;;14.07;;
66139;SDS011;52945;51.908;8.364;2024-03-06T05:08:50;38.22;;;13.55;;
66139;SDS011;52945;51.908;8.364;2024-03-06T05:11:50;37.92;;;13.02;;
66139;SDS011;52945;51.908;8.364;2024-03-06T05:14:51;35.45;;;12.68;;
66139;SDS011;52945;51.908;8.364;2024-03-06T05:17:52;34.17;;;12.82;;
66139;SDS011;52945;51.908;8.364;2024-03-06T05:20:55;38.95;;;13.38;;
66139;SDS011;52945;51.908;8.364;2024-03-06T05:23:56;36.70;;;13.38;;
66139;SDS011;52945;51.908;8.364;2024-03-06T05:26:57;40.88;;;12.48;;
66139;SDS011;52945;51.908;8.364;2024-03-06T05:29:57;36.78;;;13.25;;
66139;SDS011;52945;51.908;8.364;2024-03-06T05:32:58;31.67;;;11.98;;
66139;SDS011;52945;51.908;8.364;2024-03-06T05:35:58;36.22;;;12.23;;
66139;SDS011;52945;51.908;8.364;2024-03-06T05:38:59;36.88;;;13.23;;
66139;SDS011;52945;51.908;8.364;2024-03-06T05:42:00;39.30;;;13.45;;
66139;SDS011;52945;51.908;8.364;2024-03-06T05:45:04;35.63;;;12.13;;
66139;SDS011;52945;51.908;8.364;2024-03-06T05:48:10;39.53;;;13.43;;
66139;SDS011;52945;51.908;8.364;2024-03-06T05:51:11;38.88;;;13.60;;
66139;SDS011;52945;51.908;8.364;2024-03-06T05:54:11;39.90;;;13.50;;
66139;SDS011;52945;51.908;8.364;2024-03-06T05:57:12;42.80;;;14.35;;
66139;SDS011;52945;51.908;8.364;2024-03-06T06:00:12;38.10;;;13.30;;
66139;SDS011;52945;51.908;8.364;2024-03-06T06:03:13;39.95;;;12.82;;
66139;SDS011;52945;51.908;8.364;2024-03-06T06:06:15;37.13;;;12.93;;
66139;SDS011;52945;51.908;8.364;2024-03-06T06:09:16;40.03;;;13.07;;
66139;SDS011;52945;51.908;8.364;2024-03-06T06:12:17;43.53;;;14.23;;
66139;SDS011;52945;51.908;8.364;2024-03-06T06:15:18;36.65;;;13.57;;
66139;SDS011;52945;51.908;8.364;2024-03-06T06:18:19;39.67;;;13.48;;
66139;SDS011;52945;51.908;8.364;2024-03-06T06:21:20;35.67;;;13.15;;
66139;SDS011;52945;51.908;8.364;2024-03-06T06:24:20;40.42;;;13.40;;
66139;SDS011;52945;51.908;8.364;2024-03-06T06:27:21;41.25;;;14.30;;
66139;SDS011;52945;51.908;8.364;2024-03-06T06:30:22;38.75;;;13.32;;
66139;SDS011;52945;51.908;8.364;2024-03-06T06:33:22;36.28;;;12.88;;
66139;SDS011;52945;51.908;8.364;2024-03-06T06:36:23;40.20;;;13.57;;
66139;SDS011;52945;51.908;8.364;2024-03-06T06:39:24;36.70;;;13.93;;
66139;SDS011;52945;51.908;8.364;2024-03-06T06:42:24;39.78;;;14.02;;
66139;SDS011;52945;51.908;8.364;2024-03-06T06:45:25;37.42;;;13.45;;
66139;SDS011;52945;51.908;8.364;2024-03-06T06:48:26;35.58;;;12.77;;
66139;SDS011;52945;51.908;8.364;2024-03-06T06:51:27;38.88;;;12.90;;
66139;SDS011;52945;51.908;8.364;2024-03-06T06:54:27;33.08;;;13.18;;
66139;SDS011;52945;51.908;8.364;2024-03-06T06:57:28;35.20;;;11.80;;
66139;SDS011;52945;51.908;8.364;2024-03-06T07:00:29;36.63;;;13.27;;
66139;SDS011;52945;51.908;8.364;2024-03-06T07:03:30;39.13;;;13.77;;
66139;SDS011;52945;51.908;8.364;2024-03-06T07:06:31;37.20;;;12.75;;
66139;SDS011;52945;51.908;8.364;2024-03-06T07:09:31;35.35;;;13.80;;
66139;SDS011;52945;51.908;8.364;2024-03-06T07:12:32;37.83;;;13.90;;
66139;SDS011;52945;51.908;8.364;2024-03-06T07:15:32;38.80;;;13.45;;
66139;SDS011;52945;51.908;8.364;2024-03-06T07:18:33;39.55;;;12.80;;
66139;SDS011;52945;51.908;8.364;2024-03-06T07:21:34;35.58;;;12.43;;
66139;SDS011;52945;51.908;8.364;2024-03-06T07:24:36;38.65;;;13.15;;
66139;SDS011;52945;51.908;8.364;2024-03-06T07:27:37;36.25;;;13.65;;
66139;SDS011;52945;51.908;8.364;2024-03-06T07:30:37;34.83;;;12.63;;
66139;SDS011;52945;51.908;8.364;2024-03-06T07:33:38;37.78;;;12.55;;
66139;SDS011;52945;51.908;8.364;2024-03-06T07:36:38;39.50;;;13.35;;
66139;SDS011;52945;51.908;8.364;2024-03-06T07:39:39;34.58;;;13.43;;
66139;SDS011;52945;51.908;8.364;2024-03-06T07:42:40;37.30;;;12.48;;
66139;SDS011;52945;51.908;8.364;2024-03-06T07:45:40;38.03;;;12.35;;
66139;SDS011;52945;51.908;8.364;2024-03-06T07:48:42;35.05;;;12.38;;
66139;SDS011;52945;51.908;8.364;2024-03-06T07:51:46;35.80;;;12.73;;
66139;SDS011;52945;51.908;8.364;2024-03-06T07:54:46;33.00;;;12.10;;
66139;SDS011;52945;51.908;8.364;2024-03-06T07:57:47;31.60;;;11.95;;
66139;SDS011;52945;51.908;8.364;2024-03-06T08:00:48;34.42;;;12.77;;
66139;SDS011;52945;51.908;8.364;2024-03-06T08:03:49;40.65;;;12.60;;
66139;SDS011;52945;51.908;8.364;2024-03-06T08:06:50;31.98;;;11.70;;
66139;SDS011;52945;51.908;8.364;2024-03-06T08:09:50;31.90;;;12.07;;
66139;SDS011;52945;51.908;8.364;2024-03-06T08:12:51;33.83;;;11.82;;
66139;SDS011;52945;51.908;8.364;2024-03-06T08:15:51;38.95;;;12.50;;
66139;SDS011;52945;51.908;8.364;2024-03-06T08:18:52;34.53;;;13.00;;
66139;SDS011;52945;51.908;8.364;2024-03-06T08:21:53;36.42;;;12.20;;
66139;SDS011;52945;51.908;8.364;2024-03-06T08:24:54;34.20;;;13.15;;
66139;SDS011;52945;51.908;8.364;2024-03-06T08:27:54;40.55;;;12.98;;
66139;SDS011;52945;51.908;8.364;2024-03-06T08:30:56;36.83;;;13.20;;
66139;SDS011;52945;51.908;8.364;2024-03-06T08:33:57;37.83;;;12.85;;
66139;SDS011;52945;51.908;8.364;2024-03-06T08:36:57;36.03;;;13.38;;
66139;SDS011;52945;51.908;8.364;2024-03-06T08:39:59;34.45;;;13.05;;
66139;SDS011;52945;51.908;8.364;2024-03-06T08:43:00;32.47;;;12.95;;
66139;SDS011;52945;51.908;8.364;2024-03-06T08:46:00;37.58;;;13.32;;
66139;SDS011;52945;51.908;8.364;2024-03-06T08:49:01;35.80;;;12.82;;
66139;SDS011;52945;51.908;8.364;2024-03-06T08:52:02;35.35;;;13.15;;
66139;SDS011;52945;51.908;8.364;2024-03-06T08:55:03;39.17;;;13.40;;
66139;SDS011;52945;51.908;8.364;2024-03-06T08:58:07;35.55;;;12.60;;
66139;SDS011;52945;51.908;8.364;2024-03-06T09:01:09;40.70;;;13.05;;
66139;SDS011;52945;51.908;8.364;2024-03-06T09:04:09;36.33;;;12.43;;
66139;SDS011;52945;51.908;8.364;2024-03-06T09:07:10;39.58;;;12.77;;
66139;SDS011;52945;51.908;8.364;2024-03-06T09:10:14;32.50;;;12.45;;
66139;SDS011;52945;51.908;8.364;2024-03-06T09:13:14;31.10;;;12.10;;
66139;SDS011;52945;51.908;8.364;2024-03-06T09:16:15;39.25;;;13.82;;
66139;SDS011;52945;51.908;8.364;2024-03-06T09:19:18;38.67;;;13.35;;
66139;SDS011;52945;51.908;8.364;2024-03-06T09:22:19;34.05;;;12.40;;
66139;SDS011;52945;51.908;8.364;2024-03-06T09:25:20;35.85;;;12.55;;
66139;SDS011;52945;51.908;8.364;2024-03-06T09:28:20;36.22;;;12.02;;
66139;SDS011;52945;51.908;8.364;2024-03-06T09:31:22;32.83;;;10.75;;
66139;SDS011;52945;51.908;8.364;2024-03-06T09:34:23;32.40;;;12.00;;
66139;SDS011;52945;51.908;8.364;2024-03-06T09:37:23;32.35;;;11.23;;
66139;SDS011;52945;51.908;8.364;2024-03-06T09:40:24;35.95;;;12.90;;
66139;SDS011;52945;51.908;8.364;2024-03-06T09:43:25;29.52;;;11.75;;
66139;SDS011;52945;51.908;8.364;2024-03-06T09:46:25;35.08;;;12.50;;
66139;SDS011;52945;51.908;8.364;2024-03-06T09:49:27;30.35;;;10.45;;
66139;SDS011;52945;51.908;8.364;2024-03-06T09:52:29;32.20;;;11.80;;
66139;SDS011;52945;51.908;8.364;2024-03-06T09:55:31;31.42;;;11.98;;
66139;SDS011;52945;51.908;8.364;2024-03-06T09:58:35;30.05;;;10.95;;
66139;SDS011;52945;51.908;8.364;2024-03-06T10:04:43;25.05;;;9.95;;
66139;SDS011;52945;51.908;8.364;2024-03-06T10:07:44;34.45;;;11.77;;
66139;SDS011;52945;51.908;8.364;2024-03-06T10:10:46;29.98;;;10.77;;
66139;SDS011;52945;51.908;8.364;2024-03-06T10:13:52;29.75;;;10.52;;
66139;SDS011;52945;51.908;8.364;2024-03-06T10:16:53;29.90;;;9.70;;
66139;SDS011;52945;51.908;8.364;2024-03-06T10:19:56;25.63;;;9.55;;
66139;SDS011;52945;51.908;8.364;2024-03-06T10:22:58;20.25;;;8.70;;
66139;SDS011;52945;51.908;8.364;2024-03-06T10:25:59;20.73;;;8.18;;
66139;SDS011;52945;51.908;8.364;2024-03-06T10:28:59;25.15;;;9.80;;
66139;SDS011;52945;51.908;8.364;2024-03-06T10:32:01;24.50;;;9.43;;
66139;SDS011;52945;51.908;8.364;2024-03-06T10:35:02;21.92;;;8.98;;
66139;SDS011;52945;51.908;8.364;2024-03-06T10:38:03;24.20;;;8.98;;
66139;SDS011;52945;51.908;8.364;2024-03-06T10:41:05;24.27;;;9.50;;
66139;SDS011;52945;51.908;8.364;2024-03-06T10:44:10;24.48;;;9.18;;
66139;SDS011;52945;51.908;8.364;2024-03-06T10:47:15;27.60;;;9.80;;
66139;SDS011;52945;51.908;8.364;2024-03-06T10:50:16;22.85;;;9.43;;
66139;SDS011;52945;51.908;8.364;2024-03-06T10:53:19;28.27;;;10.43;;
66139;SDS011;52945;51.908;8.364;2024-03-06T10:56:19;22.77;;;9.32;;
66139;SDS011;52945;51.908;8.364;2024-03-06T10:59:21;22.27;;;8.68;;
66139;SDS011;52945;51.908;8.364;2024-03-06T11:02:27;19.83;;;7.85;;
66139;SDS011;52945;51.908;8.364;2024-03-06T11:05:29;23.45;;;8.95;;
66139;SDS011;52945;51.908;8.364;2024-03-06T11:08:29;18.40;;;8.40;;
66139;SDS011;52945;51.908;8.364;2024-03-06T11:11:39;22.80;;;8.35;;
66139;SDS011;52945;51.908;8.364;2024-03-06T11:14:50;20.23;;;8.02;;
66139;SDS011;52945;51.908;8.364;2024-03-06T11:17:51;21.98;;;8.98;;
66139;SDS011;52945;51.908;8.364;2024-03-06T11:24:14;21.88;;;8.82;;
66139;SDS011;52945;51.908;8.364;2024-03-06T11:27:16;21.80;;;8.15;;
66139;SDS011;52945;51.908;8.364;2024-03-06T11:30:19;22.02;;;8.40;;
66139;SDS011;52945;51.908;8.364;2024-03-06T11:33:21;21.80;;;8.25;;
66139;SDS011;52945;51.908;8.364;2024-03-06T11:36:22;24.00;;;8.95;;
66139;SDS011;52945;51.908;8.364;2024-03-06T11:39:28;25.98;;;8.48;;
66139;SDS011;52945;51.908;8.364;2024-03-06T11:42:36;23.73;;;8.85;;
66139;SDS011;52945;51.908;8.364;2024-03-06T11:45:43;22.95;;;8.30;;
66139;SDS011;52945;51.908;8.364;2024-03-06T11:51:51;23.60;;;8.80;;
66139;SDS011;52945;51.908;8.364;2024-03-06T11:54:56;21.10;;;8.23;;
66139;SDS011;52945;51.908;8.364;2024-03-06T11:57:56;26.75;;;9.93;;
66139;SDS011;52945;51.908;8.364;2024-03-06T12:00:57;27.80;;;9.93;;
66139;SDS011;52945;51.908;8.364;2024-03-06T12:03:57;22.77;;;9.02;;
66139;SDS011;52945;51.908;8.364;2024-03-06T12:06:58;25.90;;;9.60;;
66139;SDS011;52945;51.908;8.364;2024-03-06T12:13:00;24.75;;;8.50;;
66139;SDS011;52945;51.908;8.364;2024-03-06T12:16:07;26.13;;;10.10;;
66139;SDS011;52945;51.908;8.364;2024-03-06T12:19:08;25.80;;;9.95;;
66139;SDS011;52945;51.908;8.364;2024-03-06T12:22:10;28.08;;;10.73;;
66139;SDS011;52945;51.908;8.364;2024-03-06T12:25:17;28.73;;;10.55;;
66139;SDS011;52945;51.908;8.364;2024-03-06T12:28:25;29.83;;;10.65;;
66139;SDS011;52945;51.908;8.364;2024-03-06T12:31:26;27.92;;;10.68;;
66139;SDS011;52945;51.908;8.364;2024-03-06T12:34:27;31.63;;;10.93;;
66139;SDS011;52945;51.908;8.364;2024-03-06T12:37:31;30.75;;;11.90;;
66139;SDS011;52945;51.908;8.364;2024-03-06T12:40:32;28.67;;;12.10;;
66139;SDS011;52945;51.908;8.364;2024-03-06T12:43:33;33.88;;;12.07;;
66139;SDS011;52945;51.908;8.364;2024-03-06T12:49:35;31.48;;;11.32;;
66139;SDS011;52945;51.908;8.364;2024-03-06T12:52:36;33.53;;;11.60;;
66139;SDS011;52945;51.908;8.364;2024-03-06T12:55:36;32.22;;;11.98;;
66139;SDS011;52945;51.908;8.364;2024-03-06T12:58:37;32.95;;;12.50;;
66139;SDS011;52945;51.908;8.364;2024-03-06T13:01:38;30.67;;;11.70;;
66139;SDS011;52945;51.908;8.364;2024-03-06T13:04:38;32.33;;;11.77;;
66139;SDS011;52945;51.908;8.364;2024-03-06T13:07:39;37.72;;;11.52;;
66139;SDS011;52945;51.908;8.364;2024-03-06T13:10:42;35.38;;;12.07;;
66139;SDS011;52945;51.908;8.364;2024-03-06T13:13:43;28.95;;;10.27;;
66139;SDS011;52945;51.908;8.364;2024-03-06T13:16:43;34.05;;;11.10;;
66139;SDS011;52945;51.908;8.364;2024-03-06T13:19:44;33.40;;;11.15;;
66139;SDS011;52945;51.908;8.364;2024-03-06T13:22:44;31.92;;;11.48;;
66139;SDS011;52945;51.908;8.364;2024-03-06T13:25:45;28.40;;;11.77;;
66139;SDS011;52945;51.908;8.364;2024-03-06T13:28:46;28.98;;;10.90;;
66139;SDS011;52945;51.908;8.364;2024-03-06T13:31:47;36.40;;;12.63;;
66139;SDS011;52945;51.908;8.364;2024-03-06T13:34:47;36.97;;;11.50;;
66139;SDS011;52945;51.908;8.364;2024-03-06T13:37:48;33.90;;;11.35;;
66139;SDS011;52945;51.908;8.364;2024-03-06T13:40:52;28.15;;;10.88;;
66139;SDS011;52945;51.908;8.364;2024-03-06T13:43:52;35.38;;;11.88;;
66139;SDS011;52945;51.908;8.364;2024-03-06T13:46:53;30.52;;;11.25;;
66139;SDS011;52945;51.908;8.364;2024-03-06T13:49:54;34.47;;;11.52;;
66139;SDS011;52945;51.908;8.364;2024-03-06T13:52:55;34.50;;;11.52;;
66139;SDS011;52945;51.908;8.364;2024-03-06T13:55:56;33.05;;;11.07;;
66139;SDS011;52945;51.908;8.364;2024-03-06T13:58:57;33.90;;;12.63;;
66139;SDS011;52945;51.908;8.364;2024-03-06T14:01:58;36.63;;;11.35;;
66139;SDS011;52945;51.908;8.364;2024-03-06T14:04:59;37.28;;;12.20;;
66139;SDS011;52945;51.908;8.364;2024-03-06T14:07:59;37.53;;;11.98;;
66139;SDS011;52945;51.908;8.364;2024-03-06T14:11:00;30.88;;;11.15;;
66139;SDS011;52945;51.908;8.364;2024-03-06T14:14:03;33.67;;;11.60;;
66139;SDS011;52945;51.908;8.364;2024-03-06T14:17:04;37.65;;;13.15;;
66139;SDS011;52945;51.908;8.364;2024-03-06T14:20:05;35.33;;;11.90;;
66139;SDS011;52945;51.908;8.364;2024-03-06T14:23:06;36.63;;;12.25;;
66139;SDS011;52945;51.908;8.364;2024-03-06T14:26:07;36.75;;;12.18;;
66139;SDS011;52945;51.908;8.364;2024-03-06T14:29:08;36.47;;;12.13;;
66139;SDS011;52945;51.908;8.364;2024-03-06T14:32:09;40.00;;;12.82;;
66139;SDS011;52945;51.908;8.364;2024-03-06T14:35:10;35.08;;;12.10;;
66139;SDS011;52945;51.908;8.364;2024-03-06T14:38:10;34.65;;;12.70;;
66139;SDS011;52945;51.908;8.364;2024-03-06T14:41:13;37.80;;;11.70;;
66139;SDS011;52945;51.908;8.364;2024-03-06T14:44:13;33.30;;;12.48;;
66139;SDS011;52945;51.908;8.364;2024-03-06T14:47:14;33.90;;;10.38;;
66139;SDS011;52945;51.908;8.364;2024-03-06T14:50:15;35.85;;;12.20;;
66139;SDS011;52945;51.908;8.364;2024-03-06T14:53:16;31.70;;;11.40;;
66139;SDS011;52945;51.908;8.364;2024-03-06T14:56:17;33.45;;;10.88;;
66139;SDS011;52945;51.908;8.364;2024-03-06T14:59:18;37.00;;;12.23;;
66139;SDS011;52945;51.908;8.364;2024-03-06T15:02:19;30.30;;;11.82;;
66139;SDS011;52945;51.908;8.364;2024-03-06T15:05:19;32.28;;;11.38;;
66139;SDS011;52945;51.908;8.364;2024-03-06T15:08:21;36.55;;;12.20;;
66139;SDS011;52945;51.908;8.364;2024-03-06T15:11:21;31.95;;;12.25;;
66139;SDS011;52945;51.908;8.364;2024-03-06T15:14:24;35.90;;;11.57;;
66139;SDS011;52945;51.908;8.364;2024-03-06T15:17:24;34.58;;;11.13;;
66139;SDS011;52945;51.908;8.364;2024-03-06T15:20:28;31.38;;;11.80;;
66139;SDS011;52945;51.908;8.364;2024-03-06T15:23:28;37.15;;;12.55;;
66139;SDS011;52945;51.908;8.364;2024-03-06T15:26:31;31.33;;;11.43;;
66139;SDS011;52945;51.908;8.364;2024-03-06T15:29:32;33.38;;;11.38;;
66139;SDS011;52945;51.908;8.364;2024-03-06T15:32:32;31.35;;;11.57;;
66139;SDS011;52945;51.908;8.364;2024-03-06T15:35:33;33.28;;;12.32;;
66139;SDS011;52945;51.908;8.364;2024-03-06T15:38:34;38.90;;;12.77;;
66139;SDS011;52945;51.908;8.364;2024-03-06T15:41:35;33.63;;;12.00;;
66139;SDS011;52945;51.908;8.364;2024-03-06T15:44:36;43.22;;;13.60;;
66139;SDS011;52945;51.908;8.364;2024-03-06T15:47:37;36.88;;;12.13;;
66139;SDS011;52945;51.908;8.364;2024-03-06T15:50:38;35.25;;;12.45;;
66139;SDS011;52945;51.908;8.364;2024-03-06T15:53:39;38.30;;;12.32;;
66139;SDS011;52945;51.908;8.364;2024-03-06T15:56:39;38.33;;;12.40;;
66139;SDS011;52945;51.908;8.364;2024-03-06T16:02:42;33.03;;;12.55;;
66139;SDS011;52945;51.908;8.364;2024-03-06T16:05:42;34.53;;;11.57;;
66139;SDS011;52945;51.908;8.364;2024-03-06T16:08:43;37.63;;;13.27;;
66139;SDS011;52945;51.908;8.364;2024-03-06T16:11:43;36.03;;;11.93;;
66139;SDS011;52945;51.908;8.364;2024-03-06T16:14:44;33.88;;;12.10;;
66139;SDS011;52945;51.908;8.364;2024-03-06T16:17:45;32.70;;;12.45;;
66139;SDS011;52945;51.908;8.364;2024-03-06T16:20:46;34.63;;;12.70;;
66139;SDS011;52945;51.908;8.364;2024-03-06T16:23:47;31.05;;;11.93;;
66139;SDS011;52945;51.908;8.364;2024-03-06T16:26:48;35.30;;;12.35;;
66139;SDS011;52945;51.908;8.364;2024-03-06T16:29:48;35.97;;;12.65;;
66139;SDS011;52945;51.908;8.364;2024-03-06T16:32:50;38.13;;;12.30;;
66139;SDS011;52945;51.908;8.364;2024-03-06T16:38:52;32.80;;;10.70;;
66139;SDS011;52945;51.908;8.364;2024-03-06T16:41:53;33.13;;;11.95;;
66139;SDS011;52945;51.908;8.364;2024-03-06T16:44:53;35.40;;;12.15;;
66139;SDS011;52945;51.908;8.364;2024-03-06T16:47:54;31.63;;;12.23;;
66139;SDS011;52945;51.908;8.364;2024-03-06T16:51:00;34.78;;;11.70;;
66139;SDS011;52945;51.908;8.364;2024-03-06T16:54:01;32.17;;;12.07;;
66139;SDS011;52945;51.908;8.364;2024-03-06T16:57:02;31.92;;;12.27;;
66139;SDS011;52945;51.908;8.364;2024-03-06T17:00:04;36.17;;;12.18;;
66139;SDS011;52945;51.908;8.364;2024-03-06T17:03:05;35.83;;;11.77;;
66139;SDS011;52945;51.908;8.364;2024-03-06T17:06:06;34.92;;;11.68;;
66139;SDS011;52945;51.908;8.364;2024-03-06T17:09:06;32.47;;;11.15;;
66139;SDS011;52945;51.908;8.364;2024-03-06T17:12:08;35.20;;;12.77;;
66139;SDS011;52945;51.908;8.364;2024-03-06T17:15:08;31.70;;;11.40;;
66139;SDS011;52945;51.908;8.364;2024-03-06T17:18:09;31.25;;;11.25;;
66139;SDS011;52945;51.908;8.364;2024-03-06T17:21:11;33.55;;;11.93;;
66139;SDS011;52945;51.908;8.364;2024-03-06T17:24:12;28.77;;;11.23;;
66139;SDS011;52945;51.908;8.364;2024-03-06T17:27:12;36.95;;;12.18;;
66139;SDS011;52945;51.908;8.364;2024-03-06T17:30:13;32.47;;;12.90;;
66139;SDS011;52945;51.908;8.364;2024-03-06T17:33:15;34.38;;;12.90;;
66139;SDS011;52945;51.908;8.364;2024-03-06T17:39:17;26.25;;;10.00;;
66139;SDS011;52945;51.908;8.364;2024-03-06T17:42:18;27.05;;;11.00;;
66139;SDS011;52945;51.908;8.364;2024-03-06T17:45:18;30.98;;;11.80;;
66139;SDS011;52945;51.908;8.364;2024-03-06T17:48:19;25.88;;;11.45;;
66139;SDS011;52945;51.908;8.364;2024-03-06T17:51:27;31.75;;;11.02;;
66139;SDS011;52945;51.908;8.364;2024-03-06T17:54:31;28.73;;;11.65;;
66139;SDS011;52945;51.908;8.364;2024-03-06T17:57:33;29.90;;;11.35;;
66139;SDS011;52945;51.908;8.364;2024-03-06T18:00:34;30.42;;;11.70;;
66139;SDS011;52945;51.908;8.364;2024-03-06T18:03:35;30.98;;;11.57;;
66139;SDS011;52945;51.908;8.364;2024-03-06T18:06:35;29.38;;;11.27;;
66139;SDS011;52945;51.908;8.364;2024-03-06T18:09:36;29.95;;;11.23;;
66139;SDS011;52945;51.908;8.364;2024-03-06T18:12:37;28.58;;;11.70;;
66139;SDS011;52945;51.908;8.364;2024-03-06T18:15:37;29.50;;;10.75;;